createdAt,value
2019-05-25T00:01:45.397Z,98.00
2019-05-25T00:06:40.895Z,98.40
2019-05-25T00:11:36.517Z,98.80
2019-05-25T00:16:32.013Z,99.30
2019-05-25T00:21:27.541Z,99.90
2019-05-25T00:26:23.030Z,99.90
2019-05-25T00:31:18.575Z,99.90
2019-05-25T00:36:14.180Z,99.90
2019-05-25T00:41:09.778Z,99.90
2019-05-25T00:46:05.267Z,99.90
2019-05-25T00:51:00.837Z,99.90
2019-05-25T00:55:56.483Z,99.90
2019-05-25T01:00:52.006Z,99.90
2019-05-25T01:05:47.514Z,99.90
2019-05-25T01:10:43.062Z,99.90
2019-05-25T01:15:39.801Z,99.90
2019-05-25T01:20:35.290Z,99.90
2019-05-25T01:25:30.793Z,99.90
2019-05-25T01:30:26.274Z,99.90
2019-05-25T01:35:21.839Z,99.90
2019-05-25T01:40:18.729Z,99.90
2019-05-25T01:45:14.310Z,99.90
2019-05-25T01:50:10.050Z,99.90
2019-05-25T01:55:06.733Z,99.90
2019-05-25T02:00:02.557Z,99.90
2019-05-25T02:04:58.759Z,99.90
2019-05-25T02:09:54.290Z,99.90
2019-05-25T02:14:49.877Z,99.90
2019-05-25T02:19:45.498Z,99.90
2019-05-25T02:24:41.034Z,99.90
2019-05-25T02:29:36.533Z,99.90
2019-05-25T02:34:32.059Z,99.90
2019-05-25T02:39:28.198Z,99.90
2019-05-25T02:44:25.313Z,99.90
2019-05-25T02:49:20.786Z,99.90
2019-05-25T02:54:16.257Z,99.90
2019-05-25T02:59:11.775Z,99.90
2019-05-25T03:04:07.305Z,99.90
2019-05-25T03:09:06.228Z,99.90
2019-05-25T03:14:03.350Z,99.90
2019-05-25T03:18:58.847Z,99.90
2019-05-25T03:23:54.377Z,99.90
2019-05-25T03:28:49.994Z,99.90
2019-05-25T03:33:45.589Z,99.90
2019-05-25T03:38:41.241Z,99.90
2019-05-25T03:43:36.763Z,99.90
2019-05-25T03:48:32.311Z,99.90
2019-05-25T03:53:28.915Z,99.90
2019-05-25T03:58:24.475Z,99.90
2019-05-25T04:03:20.075Z,99.90
2019-05-25T04:08:15.679Z,99.90
2019-05-25T04:13:11.377Z,99.90
2019-05-25T04:18:07.068Z,99.90
2019-05-25T04:23:02.577Z,99.90
2019-05-25T04:27:58.112Z,99.90
2019-05-25T04:32:53.611Z,99.90
2019-05-25T04:37:49.101Z,99.90
2019-05-25T04:42:44.592Z,99.90
2019-05-25T04:47:40.125Z,99.90
2019-05-25T04:52:35.668Z,99.90
2019-05-25T04:57:31.179Z,99.90
2019-05-25T05:02:26.668Z,99.90
2019-05-25T05:07:22.475Z,99.90
2019-05-25T05:12:18.066Z,99.90
2019-05-25T05:17:14.514Z,99.90
2019-05-25T05:22:10.091Z,99.90
2019-05-25T05:27:05.619Z,99.90
2019-05-25T05:32:01.166Z,99.90
2019-05-25T05:36:58.698Z,99.90
2019-05-25T05:41:56.235Z,99.90
2019-05-25T05:46:54.111Z,99.90
2019-05-25T05:51:51.082Z,99.70
2019-05-25T05:56:46.643Z,99.40
2019-05-25T06:01:42.173Z,99.60
2019-05-25T06:06:37.746Z,99.30
2019-05-25T06:11:34.262Z,98.90
2019-05-25T06:16:29.802Z,97.10
2019-05-25T06:21:25.348Z,95.50
2019-05-25T06:26:20.927Z,94.50
2019-05-25T06:31:16.622Z,94.30
2019-05-25T06:36:13.203Z,93.70
2019-05-25T06:41:08.952Z,92.70
2019-05-25T06:46:05.071Z,92.90
2019-05-25T06:51:00.587Z,92.90
2019-05-25T06:55:56.094Z,90.80
2019-05-25T07:00:52.591Z,89.40
2019-05-25T07:05:48.239Z,90.00
2019-05-25T07:10:45.567Z,87.30
2019-05-25T07:15:41.061Z,87.90
2019-05-25T07:20:36.603Z,88.10
2019-05-25T07:25:32.122Z,89.80
2019-05-25T07:30:27.627Z,88.10
2019-05-25T07:35:23.151Z,86.90
2019-05-25T07:40:18.766Z,83.50
2019-05-25T07:45:14.670Z,80.60
2019-05-25T07:50:10.756Z,78.50
2019-05-25T07:55:06.641Z,71.90
2019-05-25T08:00:02.311Z,70.60
2019-05-25T08:04:57.990Z,68.80
2019-05-25T08:09:53.498Z,65.80
2019-05-25T08:14:49.026Z,67.10
2019-05-25T08:19:44.654Z,64.50
2019-05-25T08:24:41.254Z,64.00
2019-05-25T08:29:36.792Z,59.10
2019-05-25T08:34:32.326Z,56.20
2019-05-25T08:39:27.834Z,56.30
2019-05-25T08:44:23.445Z,54.60
2019-05-25T08:49:18.994Z,55.50
2019-05-25T08:54:14.650Z,50.20
2019-05-25T08:59:10.213Z,50.80
2019-05-25T09:04:04.698Z,48.00
2019-05-25T09:09:00.285Z,47.00
2019-05-25T09:13:55.865Z,46.90
2019-05-25T09:18:51.342Z,44.60
2019-05-25T09:23:48.757Z,43.30
2019-05-25T09:28:43.989Z,42.70
2019-05-25T09:33:39.650Z,45.10
2019-05-25T09:38:33.406Z,42.40
2019-05-25T09:43:29.035Z,41.70
2019-05-25T09:48:24.546Z,41.80
2019-05-25T09:53:20.287Z,42.00
2019-05-25T09:58:15.885Z,40.20
2019-05-25T10:03:11.759Z,40.90
2019-05-25T10:08:08.418Z,40.40
2019-05-25T10:13:06.582Z,40.90
2019-05-25T10:18:02.164Z,40.30
2019-05-25T10:22:57.781Z,38.90
2019-05-25T10:27:53.302Z,37.20
2019-05-25T10:32:48.999Z,38.50
2019-05-25T10:37:44.603Z,38.50
2019-05-25T10:42:40.571Z,39.70
2019-05-25T10:47:36.066Z,37.70
2019-05-25T10:52:31.621Z,38.80
2019-05-25T10:57:27.125Z,39.60
2019-05-25T11:02:22.970Z,38.10
2019-05-25T11:07:18.531Z,37.50
2019-05-25T11:12:14.044Z,36.30
2019-05-25T11:17:09.643Z,35.00
2019-05-25T11:22:07.165Z,35.50
2019-05-25T11:27:02.713Z,35.70
2019-05-25T11:32:03.877Z,34.10
2019-05-25T11:36:56.582Z,34.00
2019-05-25T11:41:52.123Z,34.90
2019-05-25T11:46:47.654Z,36.80
2019-05-25T11:51:43.165Z,36.60
2019-05-25T11:56:39.765Z,38.30
2019-05-25T12:01:35.245Z,37.70
2019-05-25T12:06:30.741Z,38.20
2019-05-25T12:11:26.254Z,38.30
2019-05-25T12:16:21.782Z,39.50
2019-05-25T12:21:18.479Z,39.80
2019-05-25T12:26:14.051Z,39.40
2019-05-25T12:31:09.698Z,38.60
2019-05-25T12:36:05.246Z,38.30
2019-05-25T12:41:00.743Z,38.60
2019-05-25T12:45:56.278Z,39.20
2019-05-25T12:50:51.842Z,38.80
2019-05-25T12:55:47.382Z,38.90
2019-05-25T13:00:55.246Z,39.60
2019-05-25T13:05:40.022Z,40.30
2019-05-25T13:10:35.630Z,40.20
2019-05-25T13:15:31.180Z,40.10
2019-05-25T13:20:26.723Z,40.40
2019-05-25T13:25:22.245Z,40.70
2019-05-25T13:30:18.105Z,41.40
2019-05-25T13:35:13.722Z,41.40
2019-05-25T13:40:09.739Z,40.70
2019-05-25T13:45:05.906Z,41.10
2019-05-25T13:50:01.584Z,40.20
2019-05-25T13:54:57.262Z,41.00
2019-05-25T13:59:52.782Z,41.60
2019-05-25T14:04:48.447Z,41.80
2019-05-25T14:09:43.927Z,41.70
2019-05-25T14:14:39.530Z,42.60
2019-05-25T14:19:35.187Z,41.90
2019-05-25T14:24:30.681Z,42.70
2019-05-25T14:29:26.632Z,46.50
2019-05-25T14:34:22.317Z,50.60
2019-05-25T14:39:18.096Z,53.30
2019-05-25T14:44:13.651Z,56.50
2019-05-25T14:49:10.270Z,61.20
2019-05-25T14:54:05.935Z,72.10
2019-05-25T14:59:02.104Z,82.00
2019-05-25T15:03:57.678Z,92.00
2019-05-25T15:08:53.235Z,97.80
2019-05-25T15:13:48.775Z,99.90
2019-05-25T15:18:44.329Z,99.90
2019-05-25T15:23:39.855Z,99.90
2019-05-25T15:28:35.528Z,99.90
2019-05-25T15:33:31.133Z,99.90
2019-05-25T15:38:26.693Z,99.90
2019-05-25T15:43:22.323Z,99.90
2019-05-25T15:48:17.846Z,99.90
2019-05-25T15:53:13.370Z,99.90
2019-05-25T15:58:08.898Z,99.90
2019-05-25T16:03:04.422Z,99.90
2019-05-25T16:08:00.027Z,99.90
2019-05-25T16:12:57.205Z,99.90
2019-05-25T16:17:52.782Z,99.90
2019-05-25T16:22:48.406Z,99.90
2019-05-25T16:27:43.958Z,99.90
2019-05-25T16:33:09.807Z,99.90
2019-05-25T16:37:36.971Z,99.90
2019-05-25T16:42:32.751Z,99.90
2019-05-25T16:47:28.270Z,99.90
2019-05-25T16:52:23.809Z,99.90
2019-05-25T16:57:20.397Z,99.90
2019-05-25T17:02:17.318Z,98.50
2019-05-25T17:07:12.931Z,97.50
2019-05-25T17:12:08.439Z,96.90
2019-05-25T17:17:03.962Z,94.70
2019-05-25T17:22:00.622Z,93.50
2019-05-25T17:26:56.238Z,93.70
2019-05-25T17:31:51.903Z,88.30
2019-05-25T17:36:47.446Z,70.60
2019-05-25T17:41:42.969Z,63.50
2019-05-25T17:46:38.573Z,59.50
2019-05-25T17:51:34.082Z,60.30
2019-05-25T17:56:29.595Z,68.80
2019-05-25T18:01:25.123Z,78.30
2019-05-25T18:06:20.683Z,90.20
2019-05-25T18:11:16.293Z,95.00
2019-05-25T18:16:11.801Z,98.30
2019-05-25T18:21:08.092Z,99.90
2019-05-25T18:26:03.659Z,99.90
2019-05-25T18:30:59.176Z,99.90
2019-05-25T18:35:54.768Z,99.90
2019-05-25T18:40:50.458Z,99.90
2019-05-25T18:45:46.023Z,99.90
2019-05-25T18:50:41.718Z,99.90
2019-05-25T18:55:37.251Z,99.90
2019-05-25T19:00:34.614Z,99.90
2019-05-25T19:05:30.746Z,99.90
2019-05-25T19:10:26.529Z,99.90
2019-05-25T19:15:22.204Z,99.90
2019-05-25T19:20:20.959Z,99.90
2019-05-25T19:25:16.681Z,99.90
2019-05-25T19:30:12.936Z,99.90
2019-05-25T19:35:09.377Z,99.90
2019-05-25T19:40:08.947Z,99.90
2019-05-25T19:45:02.497Z,99.90
2019-05-25T19:49:58.077Z,99.90
2019-05-25T19:54:54.695Z,99.90
2019-05-25T19:59:50.223Z,99.90
2019-05-25T20:04:45.735Z,99.90
2019-05-25T20:09:41.346Z,99.90
2019-05-25T20:14:36.887Z,99.90
2019-05-25T20:19:32.385Z,99.90
2019-05-25T20:24:29.079Z,99.90
2019-05-25T20:29:24.699Z,99.90
2019-05-25T20:34:20.339Z,99.90
2019-05-25T20:39:15.881Z,99.90
2019-05-25T20:44:11.451Z,99.90
2019-05-25T20:49:06.961Z,99.90
2019-05-25T20:54:02.590Z,99.90
2019-05-25T20:58:58.182Z,99.90
2019-05-25T21:03:53.672Z,99.90
2019-05-25T21:08:49.197Z,99.90
2019-05-25T21:13:44.787Z,99.90
2019-05-25T21:18:40.343Z,99.90
2019-05-25T21:23:35.926Z,99.90
2019-05-25T21:28:31.821Z,99.90
2019-05-25T21:33:27.380Z,99.90
2019-05-25T21:38:23.135Z,99.90
2019-05-25T21:43:18.737Z,99.90
2019-05-25T21:48:14.250Z,99.90
2019-05-25T21:53:11.359Z,99.90
2019-05-25T21:58:10.482Z,99.90
2019-05-25T22:03:06.131Z,99.90
2019-05-25T22:08:01.716Z,99.90
2019-05-25T22:12:57.352Z,99.90
2019-05-25T22:17:52.998Z,99.90
2019-05-25T22:22:48.662Z,99.90
2019-05-25T22:27:44.128Z,99.90
2019-05-25T22:32:39.687Z,99.90
2019-05-25T22:37:35.201Z,99.90
2019-05-25T22:42:30.686Z,99.90
2019-05-25T22:47:26.225Z,99.90
2019-05-25T22:52:22.689Z,99.90
2019-05-25T22:57:18.182Z,99.90
2019-05-25T23:02:13.806Z,99.90
2019-05-25T23:07:09.407Z,99.90
2019-05-25T23:12:04.909Z,99.90
2019-05-25T23:17:00.427Z,99.90
2019-05-25T23:21:55.964Z,99.90
2019-05-25T23:26:51.458Z,99.90
2019-05-25T23:31:47.139Z,99.90
2019-05-25T23:36:42.705Z,99.90
2019-05-25T23:41:38.225Z,99.90
2019-05-25T23:46:33.746Z,99.90
2019-05-25T23:51:29.267Z,99.90
2019-05-25T23:56:24.883Z,99.90
